createdAt,value
2023-03-06T00:00:29.368Z,50.11
2023-03-06T00:02:00.565Z,44.65
2023-03-06T00:03:31.913Z,43.52
2023-03-06T00:05:03.209Z,43.79
2023-03-06T00:06:34.637Z,40.95
2023-03-06T00:08:06.077Z,42.65
2023-03-06T00:09:37.451Z,42.93
2023-03-06T00:11:08.852Z,43.43
2023-03-06T00:12:40.164Z,41.45
2023-03-06T00:14:11.601Z,42.64
2023-03-06T00:15:43.039Z,38.59
2023-03-06T00:17:14.533Z,40.75
2023-03-06T00:18:50.919Z,38.87
2023-03-06T00:20:23.421Z,37.86
2023-03-06T00:21:55.041Z,34.63
2023-03-06T00:23:26.534Z,36.06
2023-03-06T00:24:57.829Z,35.99
2023-03-06T00:26:29.138Z,33.91
2023-03-06T00:28:00.537Z,33.48
2023-03-06T00:29:31.830Z,34.40
2023-03-06T00:31:03.856Z,33.68
2023-03-06T00:32:35.225Z,32.90
2023-03-06T00:34:06.519Z,33.58
2023-03-06T00:35:38.036Z,33.70
2023-03-06T00:37:09.437Z,30.57
2023-03-06T00:38:41.074Z,32.07
2023-03-06T00:40:17.359Z,32.86
2023-03-06T00:41:48.765Z,32.99
2023-03-06T00:43:20.164Z,32.01
2023-03-06T00:44:51.650Z,34.69
2023-03-06T00:46:23.034Z,33.27
2023-03-06T00:47:54.361Z,35.52
2023-03-06T00:49:25.764Z,35.77
2023-03-06T00:50:57.327Z,36.31
2023-03-06T00:52:28.702Z,36.06
2023-03-06T00:54:00.100Z,39.11
2023-03-06T00:55:36.302Z,39.76
2023-03-06T00:57:08.106Z,37.06
2023-03-06T00:58:40.103Z,38.94
2023-03-06T01:00:11.669Z,36.14
2023-03-06T01:01:42.987Z,36.80
2023-03-06T01:03:14.266Z,37.45
2023-03-06T01:04:45.592Z,35.98
2023-03-06T01:06:16.934Z,38.68
2023-03-06T01:07:48.374Z,40.39
2023-03-06T01:09:19.652Z,38.41
2023-03-06T01:10:51.210Z,37.20
2023-03-06T01:12:23.593Z,33.27
2023-03-06T01:13:55.129Z,37.01
2023-03-06T01:15:26.482Z,38.01
2023-03-06T01:16:57.783Z,36.28
2023-03-06T01:18:29.009Z,36.62
2023-03-06T01:20:00.297Z,37.46
2023-03-06T01:21:31.644Z,36.00
2023-03-06T01:23:02.930Z,35.94
2023-03-06T01:24:34.272Z,34.28
2023-03-06T01:26:05.452Z,34.08
2023-03-06T01:27:36.766Z,32.60
2023-03-06T01:29:08.150Z,34.89
2023-03-06T01:30:39.290Z,37.35
2023-03-06T01:32:10.692Z,36.06
2023-03-06T01:33:42.053Z,37.36
2023-03-06T01:35:13.526Z,39.01
2023-03-06T01:36:45.195Z,35.89
2023-03-06T01:38:16.682Z,37.03
2023-03-06T01:39:47.905Z,39.57
2023-03-06T01:41:19.191Z,44.24
2023-03-06T01:42:51.098Z,40.70
2023-03-06T01:44:22.542Z,43.31
2023-03-06T01:45:54.106Z,46.02
2023-03-06T01:47:25.887Z,41.75
2023-03-06T01:48:57.368Z,37.91
2023-03-06T01:50:29.264Z,42.03
2023-03-06T01:52:00.538Z,44.17
2023-03-06T01:53:31.727Z,42.09
2023-03-06T01:55:03.046Z,44.30
2023-03-06T01:56:34.481Z,45.64
2023-03-06T01:58:05.844Z,47.72
2023-03-06T01:59:37.264Z,45.33
2023-03-06T02:01:08.993Z,46.68
2023-03-06T02:02:40.414Z,42.46
2023-03-06T02:04:11.682Z,45.62
2023-03-06T02:05:43.057Z,43.88
2023-03-06T02:07:14.403Z,42.97
2023-03-06T02:08:45.699Z,41.83
2023-03-06T02:10:17.015Z,41.44
2023-03-06T02:11:48.731Z,43.18
2023-03-06T02:13:20.448Z,43.57
2023-03-06T02:14:51.680Z,41.96
2023-03-06T02:16:23.021Z,40.71
2023-03-06T02:17:54.589Z,44.69
2023-03-06T02:19:25.840Z,46.06
2023-03-06T02:20:57.161Z,47.81
2023-03-06T02:22:28.655Z,43.41
2023-03-06T02:24:00.005Z,44.21
2023-03-06T02:25:32.032Z,39.30
2023-03-06T02:27:03.592Z,40.51
2023-03-06T02:28:35.146Z,34.76
2023-03-06T02:30:06.769Z,32.29
2023-03-06T02:31:38.992Z,34.78
2023-03-06T02:33:10.273Z,31.84
2023-03-06T02:34:41.924Z,33.15
2023-03-06T02:36:18.849Z,31.43
2023-03-06T02:37:50.421Z,29.81
2023-03-06T02:39:21.912Z,28.43
2023-03-06T02:40:53.327Z,30.22
2023-03-06T02:42:24.803Z,30.40
2023-03-06T02:43:56.172Z,28.83
2023-03-06T02:45:27.627Z,27.40
2023-03-06T02:46:59.236Z,25.27
2023-03-06T02:48:30.537Z,29.60
2023-03-06T02:50:02.825Z,28.39
2023-03-06T02:51:34.145Z,28.97
2023-03-06T02:53:06.032Z,28.72
2023-03-06T02:54:37.565Z,30.26
2023-03-06T02:56:08.953Z,31.19
2023-03-06T02:57:40.157Z,30.79
2023-03-06T02:59:11.429Z,31.41
2023-03-06T03:00:42.788Z,30.24
2023-03-06T03:02:14.229Z,33.50
2023-03-06T03:03:45.569Z,33.28
2023-03-06T03:05:16.890Z,33.39
2023-03-06T03:06:48.301Z,29.74
2023-03-06T03:08:19.722Z,33.57
2023-03-06T03:09:51.031Z,32.78
2023-03-06T03:11:22.653Z,30.86
2023-03-06T03:12:53.976Z,29.61
2023-03-06T03:14:25.307Z,29.58
2023-03-06T03:15:56.571Z,31.68
2023-03-06T03:17:28.349Z,29.00
2023-03-06T03:18:59.656Z,32.78
2023-03-06T03:20:30.970Z,34.36
2023-03-06T03:22:02.460Z,34.28
2023-03-06T03:23:34.261Z,35.22
2023-03-06T03:25:10.806Z,32.98
2023-03-06T03:26:42.213Z,36.34
2023-03-06T03:28:13.610Z,38.45
2023-03-06T03:29:45.029Z,38.43
2023-03-06T03:31:16.596Z,40.80
2023-03-06T03:32:47.877Z,38.12
2023-03-06T03:34:19.079Z,39.27
2023-03-06T03:35:50.406Z,40.03
2023-03-06T03:37:21.646Z,37.43
2023-03-06T03:38:52.838Z,36.05
2023-03-06T03:40:24.099Z,37.33
2023-03-06T03:41:55.300Z,39.43
2023-03-06T03:43:26.686Z,37.47
2023-03-06T03:44:58.187Z,38.41
2023-03-06T03:46:29.750Z,41.19
2023-03-06T03:48:00.984Z,39.47
2023-03-06T03:49:32.294Z,38.02
2023-03-06T03:51:03.734Z,38.95
2023-03-06T03:52:34.948Z,38.95
2023-03-06T03:54:06.460Z,40.73
2023-03-06T03:55:37.810Z,41.84
2023-03-06T03:57:09.143Z,40.28
2023-03-06T03:58:40.658Z,42.30
2023-03-06T04:00:11.889Z,43.76
2023-03-06T04:01:43.045Z,43.31
2023-03-06T04:03:14.309Z,44.14
2023-03-06T04:04:45.717Z,43.79
2023-03-06T04:06:17.040Z,43.73
2023-03-06T04:07:48.589Z,42.08
2023-03-06T04:09:19.905Z,42.57
2023-03-06T04:10:51.413Z,43.06
2023-03-06T04:12:22.636Z,46.37
2023-03-06T04:13:54.698Z,45.49
2023-03-06T04:15:26.154Z,43.30
2023-03-06T04:16:57.628Z,45.55
2023-03-06T04:18:28.816Z,47.82
2023-03-06T04:20:00.005Z,47.94
2023-03-06T04:21:31.459Z,45.27
2023-03-06T04:23:02.552Z,48.79
2023-03-06T04:24:33.907Z,49.31
2023-03-06T04:26:05.205Z,50.12
2023-03-06T04:27:36.874Z,46.61
2023-03-06T04:29:08.121Z,45.64
2023-03-06T04:30:39.813Z,44.80
2023-03-06T04:32:11.083Z,41.04
2023-03-06T04:33:42.868Z,45.75
2023-03-06T04:35:14.081Z,44.88
2023-03-06T04:36:45.397Z,44.11
2023-03-06T04:38:16.703Z,47.82
2023-03-06T04:39:48.034Z,40.36
2023-03-06T04:41:19.295Z,40.82
2023-03-06T04:42:50.739Z,37.86
2023-03-06T04:44:21.885Z,33.86
2023-03-06T04:45:53.281Z,35.82
2023-03-06T04:47:24.597Z,39.26
2023-03-06T04:48:56.491Z,42.53
2023-03-06T04:50:28.276Z,35.83
2023-03-06T04:51:59.582Z,36.41
2023-03-06T04:53:30.874Z,30.85
2023-03-06T04:55:02.089Z,39.33
2023-03-06T04:56:33.490Z,40.49
2023-03-06T04:58:05.023Z,39.06
2023-03-06T04:59:39.091Z,38.03
2023-03-06T05:01:11.067Z,36.70
2023-03-06T05:02:42.288Z,34.98
2023-03-06T05:04:13.681Z,36.53
2023-03-06T05:05:45.182Z,34.50
2023-03-06T05:07:16.488Z,37.16
2023-03-06T05:08:47.998Z,32.95
2023-03-06T05:10:19.506Z,34.63
2023-03-06T05:11:50.661Z,31.56
2023-03-06T05:13:21.844Z,32.87
2023-03-06T05:14:53.124Z,26.19
2023-03-06T05:16:24.941Z,23.94
2023-03-06T05:17:56.400Z,28.49
2023-03-06T05:19:27.796Z,29.04
2023-03-06T05:20:58.969Z,29.07
2023-03-06T05:22:30.153Z,28.57
2023-03-06T05:24:01.329Z,29.00
2023-03-06T05:25:32.783Z,29.20
2023-03-06T05:27:03.958Z,31.09
2023-03-06T05:28:35.191Z,30.16
2023-03-06T05:30:06.657Z,29.43
2023-03-06T05:31:38.109Z,31.48
2023-03-06T05:33:09.395Z,32.16
2023-03-06T05:34:43.347Z,32.26
2023-03-06T05:36:14.614Z,36.15
2023-03-06T05:37:46.220Z,36.51
2023-03-06T05:39:17.709Z,37.32
2023-03-06T05:40:48.914Z,39.50
2023-03-06T05:42:20.204Z,40.32
2023-03-06T05:43:51.489Z,40.33
2023-03-06T05:45:22.726Z,44.04
2023-03-06T05:46:54.033Z,43.78
2023-03-06T05:48:25.580Z,42.98
2023-03-06T05:49:56.884Z,47.26
2023-03-06T05:51:28.304Z,48.66
2023-03-06T05:52:59.812Z,45.48
2023-03-06T05:54:31.378Z,38.79
2023-03-06T05:56:02.701Z,40.78
2023-03-06T05:57:34.408Z,39.71
2023-03-06T05:59:05.580Z,44.72
2023-03-06T06:00:36.839Z,39.53
2023-03-06T06:02:08.114Z,39.55
2023-03-06T06:03:39.753Z,39.99
2023-03-06T06:05:12.862Z,43.17
2023-03-06T06:06:44.640Z,42.20
2023-03-06T06:08:17.143Z,41.36
2023-03-06T06:09:48.461Z,40.00
2023-03-06T06:11:19.853Z,43.52
2023-03-06T06:12:51.138Z,44.42
2023-03-06T06:14:22.532Z,44.54
2023-03-06T06:15:53.828Z,43.64
2023-03-06T06:17:25.022Z,42.26
2023-03-06T06:18:56.322Z,43.37
2023-03-06T06:20:27.563Z,42.60
2023-03-06T06:21:59.130Z,39.73
2023-03-06T06:23:30.388Z,40.52
2023-03-06T06:25:01.545Z,39.86
2023-03-06T06:26:32.727Z,39.02
2023-03-06T06:28:03.899Z,38.81
2023-03-06T06:29:35.185Z,38.12
2023-03-06T06:31:06.435Z,39.51
2023-03-06T06:32:37.806Z,38.01
2023-03-06T06:34:09.081Z,37.01
2023-03-06T06:35:40.453Z,39.57
2023-03-06T06:37:11.585Z,37.40
2023-03-06T06:38:43.010Z,37.85
2023-03-06T06:40:14.269Z,41.16
2023-03-06T06:41:55.292Z,43.03
2023-03-06T06:43:31.353Z,40.55
2023-03-06T06:45:02.637Z,41.75
2023-03-06T06:47:19.288Z,42.77
2023-03-06T06:48:52.347Z,38.01
2023-03-06T06:50:23.666Z,41.77
2023-03-06T06:51:54.972Z,39.64
2023-03-06T06:53:27.459Z,40.24
2023-03-06T06:54:59.604Z,39.04
2023-03-06T06:56:30.840Z,39.30
2023-03-06T06:58:02.280Z,36.52
2023-03-06T06:59:33.942Z,38.66
2023-03-06T07:01:05.429Z,37.03
2023-03-06T07:02:36.653Z,37.87
2023-03-06T07:04:08.109Z,39.77
2023-03-06T07:05:39.457Z,36.12
2023-03-06T07:07:10.663Z,33.94
2023-03-06T07:08:42.076Z,37.05
2023-03-06T07:10:13.299Z,37.97
2023-03-06T07:11:44.484Z,39.01
2023-03-06T07:13:16.148Z,34.96
2023-03-06T07:14:48.285Z,37.73
2023-03-06T07:16:20.130Z,36.22
2023-03-06T07:17:51.390Z,35.04
2023-03-06T07:19:22.594Z,36.68
2023-03-06T07:20:54.180Z,39.66
2023-03-06T07:22:25.388Z,38.04
2023-03-06T07:23:56.841Z,37.31
2023-03-06T07:25:28.110Z,40.51
2023-03-06T07:26:59.328Z,39.51
2023-03-06T07:28:37.621Z,39.50
2023-03-06T07:30:17.551Z,39.57
2023-03-06T07:31:49.142Z,40.83
2023-03-06T07:33:20.373Z,38.90
2023-03-06T07:34:51.894Z,30.77
2023-03-06T07:36:23.361Z,27.71
2023-03-06T07:37:54.786Z,31.60
2023-03-06T07:39:26.109Z,31.68
2023-03-06T07:40:57.347Z,32.93
2023-03-06T07:42:28.615Z,41.18
2023-03-06T07:43:59.921Z,37.16
2023-03-06T07:45:31.425Z,28.34
2023-03-06T07:47:07.580Z,26.77
2023-03-06T07:48:38.836Z,38.42
2023-03-06T07:50:10.034Z,37.96
2023-03-06T07:51:41.273Z,36.37
2023-03-06T07:53:12.593Z,39.69
2023-03-06T07:54:43.879Z,41.66
2023-03-06T07:56:15.224Z,43.17
2023-03-06T07:57:46.584Z,40.00
2023-03-06T07:59:18.594Z,41.20
2023-03-06T08:00:50.023Z,41.86
2023-03-06T08:02:21.291Z,32.76
2023-03-06T08:03:52.811Z,42.42
2023-03-06T08:05:24.073Z,40.93
2023-03-06T08:06:56.636Z,41.05
2023-03-06T08:08:28.056Z,39.71
2023-03-06T08:09:59.328Z,37.85
2023-03-06T08:11:50.948Z,40.25
2023-03-06T08:13:22.266Z,41.09
2023-03-06T08:14:54.000Z,45.13
2023-03-06T08:16:26.232Z,35.54
2023-03-06T08:17:57.797Z,43.97
2023-03-06T08:19:29.182Z,28.61
2023-03-06T08:21:00.791Z,35.47
2023-03-06T08:22:32.618Z,45.09
2023-03-06T08:24:04.093Z,41.11
2023-03-06T08:25:35.598Z,51.90
2023-03-06T08:27:07.222Z,38.45
2023-03-06T08:28:38.643Z,38.27
2023-03-06T08:30:10.205Z,38.94
2023-03-06T08:31:41.702Z,36.79
2023-03-06T08:33:13.253Z,51.95
2023-03-06T08:34:44.588Z,49.70
2023-03-06T08:36:15.941Z,40.94
2023-03-06T08:37:47.295Z,43.73
2023-03-06T08:39:18.720Z,42.10
2023-03-06T08:40:50.109Z,43.86
2023-03-06T08:42:21.432Z,42.49
2023-03-06T08:43:53.101Z,38.91
2023-03-06T08:45:44.595Z,44.13
2023-03-06T08:47:16.904Z,32.79
2023-03-06T08:48:48.144Z,40.94
2023-03-06T08:50:19.460Z,44.65
2023-03-06T08:51:50.677Z,43.04
2023-03-06T08:53:30.445Z,37.91
2023-03-06T08:55:08.187Z,41.67
2023-03-06T08:56:39.526Z,34.60
2023-03-06T08:58:10.742Z,35.02
2023-03-06T08:59:42.093Z,34.70
2023-03-06T09:01:13.498Z,30.44
2023-03-06T09:02:45.049Z,29.25
2023-03-06T09:04:16.257Z,32.55
2023-03-06T09:05:47.657Z,31.80
2023-03-06T09:07:18.921Z,31.73
2023-03-06T09:08:50.475Z,29.98
2023-03-06T09:10:21.757Z,28.37
2023-03-06T09:11:53.342Z,31.93
2023-03-06T09:13:55.320Z,32.36
2023-03-06T09:15:41.699Z,37.45
2023-03-06T09:17:19.393Z,38.03
2023-03-06T09:18:50.665Z,35.74
2023-03-06T09:20:24.550Z,35.17
2023-03-06T09:21:56.222Z,32.62
2023-03-06T09:23:47.564Z,34.33
2023-03-06T09:25:28.829Z,39.14
2023-03-06T09:27:00.284Z,38.16
2023-03-06T09:28:31.694Z,38.22
2023-03-06T09:30:03.264Z,35.02
2023-03-06T09:31:34.829Z,34.78
2023-03-06T09:33:06.017Z,35.71
2023-03-06T09:34:42.442Z,37.75
2023-03-06T09:36:13.643Z,33.34
2023-03-06T09:37:44.922Z,36.11
2023-03-06T09:39:16.224Z,28.00
2023-03-06T09:40:47.628Z,33.58
2023-03-06T09:42:19.076Z,31.80
2023-03-06T09:43:50.458Z,37.47
2023-03-06T09:47:34.895Z,32.65
2023-03-06T09:49:41.111Z,36.28
2023-03-06T09:51:12.865Z,35.94
2023-03-06T09:52:44.693Z,37.55
2023-03-06T09:54:26.384Z,40.45
2023-03-06T09:55:58.230Z,38.16
2023-03-06T09:57:31.407Z,35.53
2023-03-06T09:59:02.966Z,34.71
2023-03-06T10:00:34.309Z,37.97
2023-03-06T10:02:05.997Z,36.66
2023-03-06T10:03:42.602Z,35.80
2023-03-06T10:05:14.074Z,38.84
2023-03-06T10:06:50.397Z,37.69
2023-03-06T10:08:21.793Z,38.79
2023-03-06T10:09:53.226Z,38.13
2023-03-06T10:11:24.461Z,41.27
2023-03-06T10:12:55.717Z,39.08
2023-03-06T10:14:26.928Z,37.59
2023-03-06T10:15:58.286Z,36.00
2023-03-06T10:17:29.490Z,39.39
2023-03-06T10:19:00.819Z,41.11
2023-03-06T10:20:32.283Z,40.16
2023-03-06T10:22:03.608Z,42.73
2023-03-06T10:23:34.825Z,42.83
2023-03-06T10:25:06.353Z,42.85
2023-03-06T10:26:37.706Z,37.79
2023-03-06T10:28:09.091Z,43.83
2023-03-06T10:29:42.145Z,46.23
2023-03-06T10:31:13.431Z,45.78
2023-03-06T10:32:49.020Z,49.71
2023-03-06T10:34:41.193Z,48.84
2023-03-06T10:36:12.916Z,45.48
2023-03-06T10:37:44.446Z,48.04
2023-03-06T10:39:16.185Z,47.96
2023-03-06T10:40:47.421Z,50.93
2023-03-06T10:42:18.639Z,48.20
2023-03-06T10:43:49.956Z,49.87
2023-03-06T10:45:21.355Z,47.97
2023-03-06T10:46:52.795Z,47.43
2023-03-06T10:48:24.027Z,47.43
2023-03-06T10:49:55.239Z,48.41
2023-03-06T10:51:26.645Z,48.56
2023-03-06T10:52:58.432Z,44.77
2023-03-06T10:54:30.207Z,41.81
2023-03-06T10:56:01.738Z,41.72
2023-03-06T10:57:33.171Z,46.69
2023-03-06T10:59:04.574Z,48.35
2023-03-06T11:00:36.141Z,46.32
2023-03-06T11:02:07.411Z,41.23
2023-03-06T11:03:38.770Z,40.82
2023-03-06T11:05:09.992Z,46.00
2023-03-06T11:06:41.207Z,37.07
2023-03-06T11:08:12.616Z,40.12
2023-03-06T11:09:44.157Z,40.09
2023-03-06T11:11:18.565Z,38.62
2023-03-06T11:12:53.829Z,28.79
2023-03-06T11:14:27.588Z,31.32
2023-03-06T11:15:59.051Z,32.10
2023-03-06T11:17:30.449Z,29.78
2023-03-06T11:19:02.120Z,30.55
2023-03-06T11:20:48.404Z,30.99
2023-03-06T11:22:22.046Z,31.98
2023-03-06T11:23:53.495Z,30.76
2023-03-06T11:25:24.933Z,33.95
2023-03-06T11:26:56.187Z,35.93
2023-03-06T11:28:27.495Z,35.36
2023-03-06T11:29:58.788Z,32.96
2023-03-06T11:31:30.362Z,31.87
2023-03-06T11:33:01.977Z,32.87
2023-03-06T11:34:33.404Z,34.64
2023-03-06T11:36:04.836Z,32.93
2023-03-06T11:37:36.151Z,30.12
2023-03-06T11:39:07.487Z,29.86
2023-03-06T11:40:38.748Z,28.00
2023-03-06T11:42:10.093Z,25.76
2023-03-06T11:43:41.301Z,24.74
2023-03-06T11:45:12.488Z,22.99
2023-03-06T11:46:43.941Z,19.24
2023-03-06T11:48:15.495Z,19.43
2023-03-06T11:49:46.727Z,19.06
2023-03-06T11:51:18.145Z,21.66
2023-03-06T11:52:49.497Z,18.21
2023-03-06T11:54:20.930Z,14.24
2023-03-06T11:55:52.303Z,14.41
2023-03-06T11:57:24.505Z,11.26
2023-03-06T11:58:56.076Z,10.03
2023-03-06T12:00:27.417Z,11.50
2023-03-06T12:02:03.875Z,12.37
2023-03-06T12:03:59.695Z,12.96
2023-03-06T12:05:32.663Z,13.68
2023-03-06T12:07:08.902Z,15.02
2023-03-06T12:09:27.051Z,15.06
2023-03-06T12:11:02.638Z,13.72
2023-03-06T12:12:34.033Z,12.98
2023-03-06T12:14:10.334Z,15.52
2023-03-06T12:15:42.217Z,16.86
2023-03-06T12:17:13.688Z,17.65
2023-03-06T12:18:45.068Z,16.53
2023-03-06T12:20:26.438Z,19.17
2023-03-06T12:21:57.896Z,19.84
2023-03-06T12:23:29.232Z,20.17
2023-03-06T12:25:31.163Z,21.02
2023-03-06T12:27:02.446Z,22.70
2023-03-06T12:28:33.868Z,21.82
2023-03-06T12:30:05.450Z,22.63
2023-03-06T12:31:58.586Z,20.48
2023-03-06T12:33:30.037Z,21.39
2023-03-06T12:35:01.960Z,19.65
2023-03-06T12:36:34.079Z,20.62
2023-03-06T12:38:05.420Z,20.87
2023-03-06T12:39:36.773Z,20.81
2023-03-06T12:43:35.788Z,16.47
2023-03-06T12:45:07.236Z,19.02
2023-03-06T12:46:53.550Z,13.87
2023-03-06T12:48:54.840Z,15.21
2023-03-06T12:50:26.129Z,17.38
2023-03-06T12:51:57.471Z,14.80
2023-03-06T12:53:29.025Z,17.28
2023-03-06T12:55:00.381Z,16.22
2023-03-06T12:56:31.668Z,15.44
2023-03-06T12:58:12.927Z,17.64
2023-03-06T12:59:44.484Z,18.55
2023-03-06T13:01:15.853Z,15.40
2023-03-06T13:02:47.515Z,12.40
2023-03-06T13:04:29.125Z,11.63
2023-03-06T13:06:00.431Z,14.71
2023-03-06T13:07:31.732Z,14.58
2023-03-06T13:09:03.546Z,16.38
2023-03-06T13:10:35.012Z,16.66
2023-03-06T13:12:11.689Z,14.31
2023-03-06T13:13:43.164Z,12.39
2023-03-06T13:15:14.518Z,13.76
2023-03-06T13:16:46.246Z,11.91
2023-03-06T13:18:17.624Z,14.76
2023-03-06T13:19:48.848Z,16.81
2023-03-06T13:21:20.241Z,16.12
2023-03-06T13:22:51.697Z,16.37
2023-03-06T13:24:22.974Z,15.69
2023-03-06T13:26:09.253Z,13.58
2023-03-06T13:27:40.813Z,16.53
2023-03-06T13:29:18.357Z,15.43
2023-03-06T13:31:21.312Z,17.62
2023-03-06T13:32:57.646Z,17.09
2023-03-06T13:34:29.093Z,16.43
2023-03-06T13:36:00.481Z,18.12
2023-03-06T13:37:32.054Z,16.32
2023-03-06T13:39:04.044Z,15.66
2023-03-06T13:40:35.440Z,12.86
2023-03-06T13:42:06.620Z,15.12
2023-03-06T13:43:37.863Z,16.18
2023-03-06T13:45:09.125Z,16.01
2023-03-06T13:46:40.685Z,12.93
2023-03-06T13:48:41.691Z,13.25
2023-03-06T13:50:15.651Z,15.42
2023-03-06T13:51:47.308Z,16.17
2023-03-06T13:53:19.079Z,16.31
2023-03-06T13:54:50.883Z,15.28
2023-03-06T13:56:22.563Z,16.30
2023-03-06T13:57:54.143Z,16.82
2023-03-06T13:59:25.407Z,16.16
2023-03-06T14:00:56.762Z,15.75
2023-03-06T14:02:28.191Z,17.86
2023-03-06T14:04:04.775Z,15.78
2023-03-06T14:05:41.581Z,13.96
2023-03-06T14:07:12.934Z,13.53
2023-03-06T14:08:44.359Z,13.96
2023-03-06T14:10:15.684Z,14.49
2023-03-06T14:11:47.336Z,12.75
2023-03-06T14:13:35.101Z,13.54
2023-03-06T14:15:24.880Z,14.14
2023-03-06T14:16:56.298Z,15.08
2023-03-06T14:18:27.617Z,13.03
2023-03-06T14:20:04.258Z,12.73
2023-03-06T14:21:35.750Z,12.53
2023-03-06T14:23:07.088Z,10.89
2023-03-06T14:24:38.397Z,13.26
2023-03-06T14:26:09.602Z,12.64
2023-03-06T14:27:41.111Z,12.22
2023-03-06T14:29:12.311Z,12.28
2023-03-06T14:30:43.583Z,12.76
2023-03-06T14:32:15.139Z,11.84
2023-03-06T14:33:46.643Z,12.90
2023-03-06T14:35:17.899Z,11.06
2023-03-06T14:36:49.161Z,12.59
2023-03-06T14:38:47.239Z,10.66
2023-03-06T14:40:29.010Z,10.11
2023-03-06T14:42:00.527Z,10.42
2023-03-06T14:43:31.801Z,9.52
2023-03-06T14:45:03.136Z,8.39
2023-03-06T14:46:34.638Z,7.75
2023-03-06T14:48:06.079Z,8.01
2023-03-06T14:49:37.497Z,7.14
2023-03-06T14:51:22.138Z,6.79
2023-03-06T14:52:53.810Z,5.82
2023-03-06T14:54:25.128Z,4.95
2023-03-06T14:56:22.728Z,7.36
2023-03-06T14:57:54.009Z,5.49
2023-03-06T14:59:40.245Z,5.10
2023-03-06T15:01:11.623Z,6.69
2023-03-06T15:02:42.987Z,6.17
2023-03-06T15:04:14.257Z,7.54
2023-03-06T15:05:45.532Z,7.71
2023-03-06T15:07:17.251Z,5.83
2023-03-06T15:08:48.754Z,7.37
2023-03-06T15:10:20.100Z,6.64
2023-03-06T15:11:52.683Z,6.26
2023-03-06T15:13:23.983Z,5.75
2023-03-06T15:14:55.272Z,6.62
2023-03-06T15:16:28.439Z,8.55
2023-03-06T15:18:01.039Z,8.71
2023-03-06T15:19:56.753Z,10.49
2023-03-06T15:21:28.107Z,11.23
2023-03-06T15:22:59.884Z,11.33
2023-03-06T15:24:31.165Z,11.67
2023-03-06T15:26:02.460Z,10.73
2023-03-06T15:27:33.845Z,10.64
2023-03-06T15:29:09.244Z,10.11
2023-03-06T15:30:41.157Z,11.38
2023-03-06T15:32:12.380Z,9.54
2023-03-06T15:33:43.845Z,9.99
2023-03-06T15:35:15.427Z,13.94
2023-03-06T15:36:46.796Z,13.11
2023-03-06T15:38:18.157Z,13.83
2023-03-06T15:39:49.374Z,16.40
2023-03-06T15:41:20.654Z,17.10
2023-03-06T15:42:52.165Z,17.65
2023-03-06T15:44:23.451Z,16.71
2023-03-06T15:45:54.973Z,16.42
2023-03-06T15:47:26.219Z,17.73
2023-03-06T15:49:07.580Z,16.86
2023-03-06T15:51:26.498Z,17.70
2023-03-06T15:52:57.834Z,17.10
2023-03-06T15:54:31.372Z,16.70
2023-03-06T15:56:04.100Z,17.50
2023-03-06T15:57:35.475Z,18.10
2023-03-06T15:59:06.722Z,19.63
2023-03-06T16:00:38.213Z,18.44
2023-03-06T16:02:09.516Z,17.32
2023-03-06T16:04:10.433Z,18.93
2023-03-06T16:06:37.384Z,20.71
2023-03-06T16:08:09.014Z,21.99
2023-03-06T16:10:03.731Z,21.28
2023-03-06T16:11:45.393Z,21.32
2023-03-06T16:13:17.278Z,22.72
2023-03-06T16:14:48.771Z,20.76
2023-03-06T16:16:40.983Z,23.21
2023-03-06T16:18:12.698Z,23.68
2023-03-06T16:19:43.897Z,23.63
2023-03-06T16:21:31.099Z,22.47
2023-03-06T16:23:02.345Z,22.53
2023-03-06T16:24:33.654Z,22.50
2023-03-06T16:26:04.887Z,22.45
2023-03-06T16:27:36.518Z,23.45
2023-03-06T16:29:07.846Z,22.17
2023-03-06T16:30:49.296Z,22.17
2023-03-06T16:32:20.723Z,20.18
2023-03-06T16:33:52.247Z,21.12
2023-03-06T16:35:23.515Z,19.35
2023-03-06T16:36:55.278Z,18.94
2023-03-06T16:38:26.517Z,21.61
2023-03-06T16:39:57.856Z,18.96
2023-03-06T16:41:29.232Z,19.30
2023-03-06T16:43:00.591Z,20.22
2023-03-06T16:44:32.223Z,21.08
2023-03-06T16:46:03.637Z,19.39
2023-03-06T16:47:40.021Z,20.52
2023-03-06T16:49:11.270Z,25.08
2023-03-06T16:50:42.644Z,21.80
2023-03-06T16:52:13.817Z,20.18
2023-03-06T16:53:44.990Z,22.12
2023-03-06T16:55:16.276Z,21.62
2023-03-06T16:56:47.669Z,23.98
2023-03-06T16:58:19.144Z,24.26
2023-03-06T16:59:51.866Z,24.55
2023-03-06T17:01:23.174Z,23.59
2023-03-06T17:02:54.521Z,24.13
2023-03-06T17:04:25.752Z,25.02
2023-03-06T17:05:57.019Z,23.62
2023-03-06T17:07:28.378Z,24.23
2023-03-06T17:08:59.812Z,25.84
2023-03-06T17:10:31.230Z,26.31
2023-03-06T17:12:02.742Z,24.90
2023-03-06T17:13:34.021Z,25.33
2023-03-06T17:15:05.449Z,28.10
2023-03-06T17:16:36.832Z,25.86
2023-03-06T17:18:08.138Z,26.42
2023-03-06T17:19:39.486Z,27.03
2023-03-06T17:21:10.754Z,28.00
2023-03-06T17:22:42.002Z,27.11
2023-03-06T17:24:13.206Z,27.54
2023-03-06T17:25:44.674Z,27.92
2023-03-06T17:27:16.114Z,25.47
2023-03-06T17:28:47.382Z,24.56
2023-03-06T17:30:18.687Z,28.43
2023-03-06T17:31:51.150Z,30.93
2023-03-06T17:33:22.582Z,30.92
2023-03-06T17:34:53.822Z,31.42
2023-03-06T17:36:25.044Z,32.36
2023-03-06T17:37:56.381Z,32.88
2023-03-06T17:39:27.822Z,33.91
2023-03-06T17:40:59.536Z,31.45
2023-03-06T17:42:30.973Z,32.77
2023-03-06T17:44:02.323Z,32.85
2023-03-06T17:45:33.585Z,33.87
2023-03-06T17:47:04.827Z,32.03
2023-03-06T17:48:36.157Z,35.02
2023-03-06T17:50:07.520Z,33.33
2023-03-06T17:52:04.216Z,33.24
2023-03-06T17:53:35.526Z,31.84
2023-03-06T17:55:06.957Z,32.97
2023-03-06T17:56:38.430Z,32.97
2023-03-06T17:58:12.093Z,34.32
2023-03-06T17:59:43.636Z,33.46
2023-03-06T18:01:14.989Z,25.49
2023-03-06T18:02:46.380Z,29.72
2023-03-06T18:04:17.872Z,29.45
2023-03-06T18:05:49.247Z,32.43
2023-03-06T18:07:20.459Z,29.84
2023-03-06T18:08:52.890Z,29.85
2023-03-06T18:10:24.584Z,25.98
2023-03-06T18:11:55.875Z,30.54
2023-03-06T18:13:27.137Z,29.83
2023-03-06T18:14:58.575Z,29.34
2023-03-06T18:16:29.995Z,30.17
2023-03-06T18:18:01.256Z,31.06
2023-03-06T18:19:32.482Z,25.52
2023-03-06T18:21:03.701Z,26.51
2023-03-06T18:22:34.984Z,29.16
2023-03-06T18:24:06.508Z,29.39
2023-03-06T18:25:38.066Z,28.26
2023-03-06T18:27:09.276Z,30.15
2023-03-06T18:28:40.629Z,30.99
2023-03-06T18:30:11.948Z,32.05
2023-03-06T18:31:43.199Z,30.95
2023-03-06T18:33:14.564Z,31.03
2023-03-06T18:34:46.039Z,29.16
2023-03-06T18:36:17.757Z,30.66
2023-03-06T18:37:49.460Z,32.69
2023-03-06T18:39:20.994Z,32.56
2023-03-06T18:40:52.401Z,32.24
2023-03-06T18:42:46.457Z,33.25
2023-03-06T18:44:17.875Z,29.02
2023-03-06T18:45:49.123Z,30.58
2023-03-06T18:47:20.513Z,31.76
2023-03-06T18:48:51.751Z,30.78
2023-03-06T18:50:23.013Z,33.56
2023-03-06T18:51:54.360Z,31.91
2023-03-06T18:53:25.537Z,31.36
2023-03-06T18:54:57.085Z,32.86
2023-03-06T18:56:28.616Z,34.80
2023-03-06T18:57:59.999Z,34.42
2023-03-06T18:59:31.505Z,36.39
2023-03-06T19:01:02.741Z,33.28
2023-03-06T19:02:34.191Z,34.69
2023-03-06T19:04:05.599Z,33.01
2023-03-06T19:05:37.276Z,32.88
2023-03-06T19:07:28.634Z,33.53
2023-03-06T19:08:59.919Z,34.26
2023-03-06T19:10:31.241Z,36.37
2023-03-06T19:12:02.559Z,35.49
2023-03-06T19:13:33.830Z,34.79
2023-03-06T19:15:05.240Z,34.93
2023-03-06T19:16:36.637Z,36.40
2023-03-06T19:18:07.795Z,34.85
2023-03-06T19:19:39.068Z,34.36
2023-03-06T19:21:10.379Z,33.26
2023-03-06T19:22:41.859Z,35.11
2023-03-06T19:24:33.192Z,32.02
2023-03-06T19:26:04.743Z,33.93
2023-03-06T19:27:36.074Z,32.92
2023-03-06T19:29:07.399Z,35.54
2023-03-06T19:30:38.795Z,37.36
2023-03-06T19:32:28.356Z,34.77
2023-03-06T19:34:00.115Z,34.45
2023-03-06T19:35:32.010Z,30.79
2023-03-06T19:37:03.379Z,33.50
2023-03-06T19:39:10.237Z,34.43
2023-03-06T19:40:41.566Z,32.54
2023-03-06T19:42:13.863Z,33.59
2023-03-06T19:43:45.399Z,32.29
2023-03-06T19:45:40.843Z,33.32
2023-03-06T19:47:12.186Z,35.87
2023-03-06T19:48:44.801Z,28.77
2023-03-06T19:50:15.976Z,31.20
2023-03-06T19:51:47.293Z,32.50
2023-03-06T19:53:18.557Z,35.18
2023-03-06T19:54:50.273Z,31.40
2023-03-06T19:56:41.523Z,32.30
2023-03-06T19:58:12.820Z,33.45
2023-03-06T19:59:44.175Z,29.43
2023-03-06T20:01:15.418Z,31.14
2023-03-06T20:02:47.027Z,34.10
2023-03-06T20:04:43.331Z,33.28